sensor_id;sensor_type;location;lat;lon;timestamp;P1;durP1;ratioP1;P2;durP2;ratioP2
49071;SDS011;52656;52.610;10.236;2023-05-08T00:00:18;7.95;;;6.03;;
49071;SDS011;52656;52.610;10.236;2023-05-08T00:02:44;8.25;;;6.65;;
49071;SDS011;52656;52.610;10.236;2023-05-08T00:05:09;7.88;;;5.78;;
49071;SDS011;52656;52.610;10.236;2023-05-08T00:07:35;7.88;;;5.55;;
49071;SDS011;52656;52.610;10.236;2023-05-08T00:10:02;8.45;;;7.13;;
49071;SDS011;52656;52.610;10.236;2023-05-08T00:12:28;10.40;;;7.72;;
49071;SDS011;52656;52.610;10.236;2023-05-08T00:14:53;9.98;;;7.50;;
49071;SDS011;52656;52.610;10.236;2023-05-08T00:17:18;8.57;;;6.27;;
49071;SDS011;52656;52.610;10.236;2023-05-08T00:19:44;8.73;;;6.90;;
49071;SDS011;52656;52.610;10.236;2023-05-08T00:22:09;9.75;;;6.38;;
49071;SDS011;52656;52.610;10.236;2023-05-08T00:24:35;7.22;;;5.05;;
49071;SDS011;52656;52.610;10.236;2023-05-08T00:27:00;8.55;;;6.85;;
49071;SDS011;52656;52.610;10.236;2023-05-08T00:29:25;9.98;;;7.32;;
49071;SDS011;52656;52.610;10.236;2023-05-08T00:31:50;8.17;;;6.83;;
49071;SDS011;52656;52.610;10.236;2023-05-08T00:34:16;8.80;;;7.20;;
49071;SDS011;52656;52.610;10.236;2023-05-08T00:36:41;9.45;;;7.05;;
49071;SDS011;52656;52.610;10.236;2023-05-08T00:39:06;9.05;;;7.90;;
49071;SDS011;52656;52.610;10.236;2023-05-08T00:41:32;8.10;;;6.47;;
49071;SDS011;52656;52.610;10.236;2023-05-08T00:43:57;7.43;;;5.57;;
49071;SDS011;52656;52.610;10.236;2023-05-08T00:46:22;8.00;;;6.93;;
49071;SDS011;52656;52.610;10.236;2023-05-08T00:48:48;11.85;;;7.38;;
49071;SDS011;52656;52.610;10.236;2023-05-08T00:51:13;7.43;;;5.60;;
49071;SDS011;52656;52.610;10.236;2023-05-08T00:53:40;8.63;;;5.35;;
49071;SDS011;52656;52.610;10.236;2023-05-08T00:56:12;8.55;;;6.60;;
49071;SDS011;52656;52.610;10.236;2023-05-08T00:58:38;9.75;;;7.05;;
49071;SDS011;52656;52.610;10.236;2023-05-08T01:01:04;8.18;;;5.82;;
49071;SDS011;52656;52.610;10.236;2023-05-08T01:03:31;7.13;;;5.55;;
49071;SDS011;52656;52.610;10.236;2023-05-08T01:05:59;8.45;;;6.20;;
49071;SDS011;52656;52.610;10.236;2023-05-08T01:08:26;9.20;;;6.45;;
49071;SDS011;52656;52.610;10.236;2023-05-08T01:13:46;10.30;;;6.95;;
49071;SDS011;52656;52.610;10.236;2023-05-08T01:21:50;8.57;;;6.38;;
49071;SDS011;52656;52.610;10.236;2023-05-08T01:33:09;9.63;;;6.30;;
49071;SDS011;52656;52.610;10.236;2023-05-08T01:38:07;8.37;;;6.50;;
49071;SDS011;52656;52.610;10.236;2023-05-08T01:40:45;10.75;;;7.55;;
49071;SDS011;52656;52.610;10.236;2023-05-08T01:45:48;8.27;;;7.10;;
49071;SDS011;52656;52.610;10.236;2023-05-08T01:48:18;8.32;;;7.30;;
49071;SDS011;52656;52.610;10.236;2023-05-08T01:50:51;9.35;;;7.47;;
49071;SDS011;52656;52.610;10.236;2023-05-08T01:53:29;9.73;;;7.57;;
49071;SDS011;52656;52.610;10.236;2023-05-08T01:55:59;7.68;;;6.32;;
49071;SDS011;52656;52.610;10.236;2023-05-08T01:58:32;9.70;;;8.18;;
49071;SDS011;52656;52.610;10.236;2023-05-08T02:00:59;9.02;;;6.63;;
49071;SDS011;52656;52.610;10.236;2023-05-08T02:03:26;8.48;;;6.70;;
49071;SDS011;52656;52.610;10.236;2023-05-08T02:05:55;9.38;;;7.25;;
49071;SDS011;52656;52.610;10.236;2023-05-08T02:08:23;10.25;;;8.60;;
49071;SDS011;52656;52.610;10.236;2023-05-08T02:10:49;10.40;;;8.48;;
49071;SDS011;52656;52.610;10.236;2023-05-08T02:13:15;9.93;;;6.43;;
49071;SDS011;52656;52.610;10.236;2023-05-08T02:15:44;7.88;;;6.45;;
49071;SDS011;52656;52.610;10.236;2023-05-08T02:18:16;9.18;;;6.22;;
49071;SDS011;52656;52.610;10.236;2023-05-08T02:20:45;8.93;;;7.10;;
49071;SDS011;52656;52.610;10.236;2023-05-08T02:23:11;9.25;;;7.32;;
49071;SDS011;52656;52.610;10.236;2023-05-08T02:25:38;10.32;;;8.40;;
49071;SDS011;52656;52.610;10.236;2023-05-08T02:28:04;10.20;;;8.25;;
49071;SDS011;52656;52.610;10.236;2023-05-08T02:30:30;11.13;;;8.75;;
49071;SDS011;52656;52.610;10.236;2023-05-08T02:32:57;8.13;;;6.35;;
49071;SDS011;52656;52.610;10.236;2023-05-08T02:35:24;11.73;;;8.15;;
49071;SDS011;52656;52.610;10.236;2023-05-08T02:37:52;11.60;;;7.97;;
49071;SDS011;52656;52.610;10.236;2023-05-08T02:40:20;12.65;;;8.77;;
49071;SDS011;52656;52.610;10.236;2023-05-08T02:42:47;9.90;;;6.85;;
49071;SDS011;52656;52.610;10.236;2023-05-08T02:47:46;8.25;;;6.35;;
49071;SDS011;52656;52.610;10.236;2023-05-08T02:50:22;8.68;;;6.65;;
49071;SDS011;52656;52.610;10.236;2023-05-08T02:53:01;12.15;;;8.48;;
49071;SDS011;52656;52.610;10.236;2023-05-08T02:58:03;10.60;;;7.88;;
49071;SDS011;52656;52.610;10.236;2023-05-08T03:00:42;8.43;;;6.25;;
49071;SDS011;52656;52.610;10.236;2023-05-08T03:03:20;9.93;;;8.05;;
49071;SDS011;52656;52.610;10.236;2023-05-08T03:08:26;10.48;;;7.72;;
49071;SDS011;52656;52.610;10.236;2023-05-08T03:10:55;10.40;;;8.02;;
49071;SDS011;52656;52.610;10.236;2023-05-08T03:13:23;11.30;;;6.63;;
49071;SDS011;52656;52.610;10.236;2023-05-08T03:15:52;8.30;;;6.15;;
49071;SDS011;52656;52.610;10.236;2023-05-08T03:18:20;10.57;;;7.05;;
49071;SDS011;52656;52.610;10.236;2023-05-08T03:20:50;8.52;;;6.80;;
49071;SDS011;52656;52.610;10.236;2023-05-08T03:23:18;9.32;;;6.00;;
49071;SDS011;52656;52.610;10.236;2023-05-08T03:25:45;10.82;;;7.53;;
49071;SDS011;52656;52.610;10.236;2023-05-08T03:28:11;11.32;;;8.48;;
49071;SDS011;52656;52.610;10.236;2023-05-08T03:30:39;9.40;;;7.03;;
49071;SDS011;52656;52.610;10.236;2023-05-08T03:33:05;9.85;;;8.05;;
49071;SDS011;52656;52.610;10.236;2023-05-08T03:35:33;10.30;;;8.00;;
49071;SDS011;52656;52.610;10.236;2023-05-08T03:38:01;9.98;;;7.88;;
49071;SDS011;52656;52.610;10.236;2023-05-08T03:40:26;13.43;;;9.25;;
49071;SDS011;52656;52.610;10.236;2023-05-08T03:42:52;8.68;;;5.88;;
49071;SDS011;52656;52.610;10.236;2023-05-08T03:45:18;10.65;;;7.57;;
49071;SDS011;52656;52.610;10.236;2023-05-08T03:50:10;9.73;;;6.40;;
49071;SDS011;52656;52.610;10.236;2023-05-08T03:52:35;9.70;;;8.05;;
49071;SDS011;52656;52.610;10.236;2023-05-08T03:55:02;8.73;;;6.35;;
49071;SDS011;52656;52.610;10.236;2023-05-08T03:57:30;7.28;;;5.10;;
49071;SDS011;52656;52.610;10.236;2023-05-08T04:00:03;8.57;;;6.30;;
49071;SDS011;52656;52.610;10.236;2023-05-08T04:05:18;8.95;;;7.30;;
49071;SDS011;52656;52.610;10.236;2023-05-08T04:07:51;8.63;;;6.43;;
49071;SDS011;52656;52.610;10.236;2023-05-08T04:10:41;10.40;;;6.80;;
49071;SDS011;52656;52.610;10.236;2023-05-08T04:13:13;9.07;;;6.30;;
49071;SDS011;52656;52.610;10.236;2023-05-08T04:15:43;7.65;;;6.75;;
49071;SDS011;52656;52.610;10.236;2023-05-08T04:18:29;8.82;;;7.43;;
49071;SDS011;52656;52.610;10.236;2023-05-08T04:20:58;8.38;;;6.88;;
49071;SDS011;52656;52.610;10.236;2023-05-08T04:23:27;12.00;;;7.50;;
49071;SDS011;52656;52.610;10.236;2023-05-08T04:25:53;8.63;;;6.63;;
49071;SDS011;52656;52.610;10.236;2023-05-08T04:28:20;6.70;;;5.15;;
49071;SDS011;52656;52.610;10.236;2023-05-08T04:30:45;7.05;;;4.70;;
49071;SDS011;52656;52.610;10.236;2023-05-08T04:33:11;8.40;;;6.65;;
49071;SDS011;52656;52.610;10.236;2023-05-08T04:35:37;8.02;;;5.68;;
49071;SDS011;52656;52.610;10.236;2023-05-08T04:38:03;9.07;;;5.88;;
49071;SDS011;52656;52.610;10.236;2023-05-08T04:40:28;8.27;;;6.30;;
49071;SDS011;52656;52.610;10.236;2023-05-08T04:42:54;6.53;;;4.73;;
49071;SDS011;52656;52.610;10.236;2023-05-08T04:45:19;8.20;;;5.50;;
49071;SDS011;52656;52.610;10.236;2023-05-08T04:47:45;7.55;;;5.47;;
49071;SDS011;52656;52.610;10.236;2023-05-08T04:50:10;7.38;;;5.72;;
49071;SDS011;52656;52.610;10.236;2023-05-08T04:52:36;8.23;;;5.85;;
49071;SDS011;52656;52.610;10.236;2023-05-08T04:55:01;8.80;;;5.63;;
49071;SDS011;52656;52.610;10.236;2023-05-08T04:57:26;7.15;;;6.03;;
49071;SDS011;52656;52.610;10.236;2023-05-08T04:59:52;7.05;;;4.78;;
49071;SDS011;52656;52.610;10.236;2023-05-08T05:02:17;6.65;;;5.47;;
49071;SDS011;52656;52.610;10.236;2023-05-08T05:04:42;9.55;;;5.13;;
49071;SDS011;52656;52.610;10.236;2023-05-08T05:07:08;6.95;;;4.50;;
49071;SDS011;52656;52.610;10.236;2023-05-08T05:09:33;7.70;;;5.80;;
49071;SDS011;52656;52.610;10.236;2023-05-08T05:12:01;6.90;;;5.50;;
49071;SDS011;52656;52.610;10.236;2023-05-08T05:14:27;6.57;;;5.50;;
49071;SDS011;52656;52.610;10.236;2023-05-08T05:16:53;8.32;;;5.78;;
49071;SDS011;52656;52.610;10.236;2023-05-08T05:21:43;6.50;;;5.78;;
49071;SDS011;52656;52.610;10.236;2023-05-08T05:26:35;6.55;;;5.30;;
49071;SDS011;52656;52.610;10.236;2023-05-08T05:31:26;6.25;;;4.88;;
49071;SDS011;52656;52.610;10.236;2023-05-08T05:36:18;7.18;;;5.28;;
49071;SDS011;52656;52.610;10.236;2023-05-08T05:41:08;8.38;;;6.10;;
49071;SDS011;52656;52.610;10.236;2023-05-08T05:46:05;6.82;;;5.03;;
49071;SDS011;52656;52.610;10.236;2023-05-08T05:48:31;7.43;;;5.65;;
49071;SDS011;52656;52.610;10.236;2023-05-08T05:53:22;6.95;;;5.60;;
49071;SDS011;52656;52.610;10.236;2023-05-08T05:58:12;9.00;;;4.72;;
49071;SDS011;52656;52.610;10.236;2023-05-08T06:03:03;7.25;;;6.22;;
49071;SDS011;52656;52.610;10.236;2023-05-08T06:07:54;7.75;;;5.57;;
49071;SDS011;52656;52.610;10.236;2023-05-08T06:12:45;7.63;;;5.90;;
49071;SDS011;52656;52.610;10.236;2023-05-08T06:15:10;10.30;;;5.47;;
49071;SDS011;52656;52.610;10.236;2023-05-08T06:17:38;7.45;;;5.70;;
49071;SDS011;52656;52.610;10.236;2023-05-08T06:22:29;8.48;;;6.00;;
49071;SDS011;52656;52.610;10.236;2023-05-08T06:27:21;8.48;;;5.80;;
49071;SDS011;52656;52.610;10.236;2023-05-08T06:32:14;11.43;;;5.10;;
49071;SDS011;52656;52.610;10.236;2023-05-08T06:37:05;9.00;;;5.70;;
49071;SDS011;52656;52.610;10.236;2023-05-08T06:39:30;6.82;;;5.57;;
49071;SDS011;52656;52.610;10.236;2023-05-08T06:44:21;6.70;;;4.77;;
49071;SDS011;52656;52.610;10.236;2023-05-08T06:49:11;6.37;;;5.67;;
49071;SDS011;52656;52.610;10.236;2023-05-08T06:54:03;6.55;;;4.70;;
49071;SDS011;52656;52.610;10.236;2023-05-08T06:56:31;6.78;;;5.90;;
49071;SDS011;52656;52.610;10.236;2023-05-08T06:58:57;8.82;;;5.72;;
49071;SDS011;52656;52.610;10.236;2023-05-08T07:01:22;6.68;;;5.68;;
49071;SDS011;52656;52.610;10.236;2023-05-08T07:03:47;6.85;;;5.78;;
49071;SDS011;52656;52.610;10.236;2023-05-08T07:06:13;7.68;;;5.63;;
49071;SDS011;52656;52.610;10.236;2023-05-08T07:08:38;5.93;;;4.95;;
49071;SDS011;52656;52.610;10.236;2023-05-08T07:11:03;8.20;;;4.63;;
49071;SDS011;52656;52.610;10.236;2023-05-08T07:13:29;7.32;;;5.13;;
49071;SDS011;52656;52.610;10.236;2023-05-08T07:15:54;7.88;;;4.47;;
49071;SDS011;52656;52.610;10.236;2023-05-08T07:18:20;5.78;;;5.03;;
49071;SDS011;52656;52.610;10.236;2023-05-08T07:20:45;5.78;;;4.95;;
49071;SDS011;52656;52.610;10.236;2023-05-08T07:23:11;6.20;;;5.05;;
49071;SDS011;52656;52.610;10.236;2023-05-08T07:25:36;5.22;;;3.85;;
49071;SDS011;52656;52.610;10.236;2023-05-08T07:28:01;8.07;;;5.47;;
49071;SDS011;52656;52.610;10.236;2023-05-08T07:30:27;7.82;;;5.80;;
49071;SDS011;52656;52.610;10.236;2023-05-08T07:32:52;6.10;;;5.50;;
49071;SDS011;52656;52.610;10.236;2023-05-08T07:35:17;9.07;;;5.88;;
49071;SDS011;52656;52.610;10.236;2023-05-08T07:37:43;9.05;;;5.25;;
49071;SDS011;52656;52.610;10.236;2023-05-08T07:40:09;7.57;;;5.97;;
49071;SDS011;52656;52.610;10.236;2023-05-08T07:42:38;7.38;;;5.90;;
49071;SDS011;52656;52.610;10.236;2023-05-08T07:45:09;7.47;;;5.95;;
49071;SDS011;52656;52.610;10.236;2023-05-08T07:47:36;6.95;;;5.75;;
49071;SDS011;52656;52.610;10.236;2023-05-08T07:50:02;8.73;;;5.53;;
49071;SDS011;52656;52.610;10.236;2023-05-08T07:52:28;7.05;;;5.00;;
49071;SDS011;52656;52.610;10.236;2023-05-08T07:54:53;7.28;;;5.28;;
49071;SDS011;52656;52.610;10.236;2023-05-08T07:57:19;8.27;;;5.97;;
49071;SDS011;52656;52.610;10.236;2023-05-08T07:59:44;7.53;;;5.32;;
49071;SDS011;52656;52.610;10.236;2023-05-08T08:02:10;6.28;;;5.10;;
49071;SDS011;52656;52.610;10.236;2023-05-08T08:04:35;8.15;;;6.05;;
49071;SDS011;52656;52.610;10.236;2023-05-08T08:07:00;7.80;;;5.68;;
49071;SDS011;52656;52.610;10.236;2023-05-08T08:09:26;7.07;;;5.82;;
49071;SDS011;52656;52.610;10.236;2023-05-08T08:11:51;6.95;;;5.93;;
49071;SDS011;52656;52.610;10.236;2023-05-08T08:14:16;7.15;;;5.80;;
49071;SDS011;52656;52.610;10.236;2023-05-08T08:16:41;8.18;;;5.63;;
49071;SDS011;52656;52.610;10.236;2023-05-08T08:19:07;7.72;;;5.60;;
49071;SDS011;52656;52.610;10.236;2023-05-08T08:21:33;7.07;;;4.95;;
49071;SDS011;52656;52.610;10.236;2023-05-08T08:23:58;7.10;;;5.90;;
49071;SDS011;52656;52.610;10.236;2023-05-08T08:26:25;6.45;;;5.50;;
49071;SDS011;52656;52.610;10.236;2023-05-08T08:28:50;7.30;;;5.82;;
49071;SDS011;52656;52.610;10.236;2023-05-08T08:31:16;8.40;;;5.32;;
49071;SDS011;52656;52.610;10.236;2023-05-08T08:33:41;7.05;;;5.63;;
49071;SDS011;52656;52.610;10.236;2023-05-08T08:36:14;9.00;;;6.57;;
49071;SDS011;52656;52.610;10.236;2023-05-08T08:38:40;7.25;;;5.60;;
49071;SDS011;52656;52.610;10.236;2023-05-08T08:41:05;7.10;;;5.63;;
49071;SDS011;52656;52.610;10.236;2023-05-08T08:43:31;7.50;;;5.97;;
49071;SDS011;52656;52.610;10.236;2023-05-08T08:45:56;5.78;;;5.03;;
49071;SDS011;52656;52.610;10.236;2023-05-08T08:48:23;6.85;;;6.15;;
49071;SDS011;52656;52.610;10.236;2023-05-08T08:50:52;6.82;;;6.05;;
49071;SDS011;52656;52.610;10.236;2023-05-08T08:53:25;7.30;;;5.45;;
49071;SDS011;52656;52.610;10.236;2023-05-08T08:55:54;8.85;;;6.30;;
49071;SDS011;52656;52.610;10.236;2023-05-08T08:58:32;6.82;;;6.13;;
49071;SDS011;52656;52.610;10.236;2023-05-08T09:01:02;8.45;;;6.28;;
49071;SDS011;52656;52.610;10.236;2023-05-08T09:03:29;5.90;;;4.45;;
49071;SDS011;52656;52.610;10.236;2023-05-08T09:05:58;6.47;;;5.05;;
49071;SDS011;52656;52.610;10.236;2023-05-08T09:08:24;7.53;;;6.13;;
49071;SDS011;52656;52.610;10.236;2023-05-08T09:10:49;6.57;;;5.40;;
49071;SDS011;52656;52.610;10.236;2023-05-08T09:13:17;5.22;;;4.45;;
49071;SDS011;52656;52.610;10.236;2023-05-08T09:15:43;6.50;;;4.95;;
49071;SDS011;52656;52.610;10.236;2023-05-08T09:18:08;6.63;;;4.50;;
49071;SDS011;52656;52.610;10.236;2023-05-08T09:20:33;6.43;;;5.50;;
49071;SDS011;52656;52.610;10.236;2023-05-08T09:22:59;6.80;;;4.47;;
49071;SDS011;52656;52.610;10.236;2023-05-08T09:25:39;6.72;;;4.95;;
49071;SDS011;52656;52.610;10.236;2023-05-08T09:28:15;7.53;;;5.13;;
49071;SDS011;52656;52.610;10.236;2023-05-08T09:31:15;6.43;;;5.25;;
49071;SDS011;52656;52.610;10.236;2023-05-08T09:33:33;7.05;;;4.75;;
49071;SDS011;52656;52.610;10.236;2023-05-08T09:36:08;5.53;;;4.22;;
49071;SDS011;52656;52.610;10.236;2023-05-08T09:38:51;5.85;;;4.45;;
49071;SDS011;52656;52.610;10.236;2023-05-08T09:41:17;8.20;;;4.75;;
49071;SDS011;52656;52.610;10.236;2023-05-08T09:43:42;6.65;;;4.38;;
49071;SDS011;52656;52.610;10.236;2023-05-08T09:48:43;5.03;;;4.15;;
49071;SDS011;52656;52.610;10.236;2023-05-08T09:51:09;5.68;;;4.40;;
49071;SDS011;52656;52.610;10.236;2023-05-08T09:53:35;5.30;;;4.03;;
49071;SDS011;52656;52.610;10.236;2023-05-08T09:56:00;5.55;;;3.95;;
49071;SDS011;52656;52.610;10.236;2023-05-08T09:58:27;4.93;;;3.83;;
49071;SDS011;52656;52.610;10.236;2023-05-08T10:01:06;6.18;;;3.58;;
49071;SDS011;52656;52.610;10.236;2023-05-08T10:03:45;4.28;;;3.35;;
49071;SDS011;52656;52.610;10.236;2023-05-08T10:06:13;6.45;;;3.55;;
49071;SDS011;52656;52.610;10.236;2023-05-08T10:08:39;6.32;;;4.45;;
49071;SDS011;52656;52.610;10.236;2023-05-08T10:11:15;5.68;;;4.22;;
49071;SDS011;52656;52.610;10.236;2023-05-08T10:13:44;7.03;;;4.82;;
49071;SDS011;52656;52.610;10.236;2023-05-08T10:16:12;5.28;;;3.60;;
49071;SDS011;52656;52.610;10.236;2023-05-08T10:18:42;6.50;;;3.95;;
49071;SDS011;52656;52.610;10.236;2023-05-08T10:21:14;5.03;;;3.72;;
49071;SDS011;52656;52.610;10.236;2023-05-08T10:23:43;5.65;;;4.00;;
49071;SDS011;52656;52.610;10.236;2023-05-08T10:26:15;8.30;;;4.50;;
49071;SDS011;52656;52.610;10.236;2023-05-08T10:28:43;7.07;;;4.53;;
49071;SDS011;52656;52.610;10.236;2023-05-08T10:31:18;6.47;;;4.35;;
49071;SDS011;52656;52.610;10.236;2023-05-08T10:33:46;5.75;;;3.70;;
49071;SDS011;52656;52.610;10.236;2023-05-08T10:36:15;5.40;;;3.83;;
49071;SDS011;52656;52.610;10.236;2023-05-08T10:38:41;6.38;;;4.85;;
49071;SDS011;52656;52.610;10.236;2023-05-08T10:41:08;4.95;;;3.33;;
49071;SDS011;52656;52.610;10.236;2023-05-08T10:43:34;12.52;;;4.03;;
49071;SDS011;52656;52.610;10.236;2023-05-08T10:46:09;4.75;;;3.90;;
49071;SDS011;52656;52.610;10.236;2023-05-08T10:48:47;7.40;;;5.18;;
49071;SDS011;52656;52.610;10.236;2023-05-08T10:54:29;4.78;;;3.63;;
49071;SDS011;52656;52.610;10.236;2023-05-08T10:57:09;7.13;;;4.60;;
49071;SDS011;52656;52.610;10.236;2023-05-08T10:59:35;6.68;;;4.35;;
49071;SDS011;52656;52.610;10.236;2023-05-08T11:02:05;8.98;;;4.22;;
49071;SDS011;52656;52.610;10.236;2023-05-08T11:04:32;5.63;;;3.85;;
49071;SDS011;52656;52.610;10.236;2023-05-08T11:06:58;6.03;;;4.68;;
49071;SDS011;52656;52.610;10.236;2023-05-08T11:09:27;5.60;;;3.88;;
49071;SDS011;52656;52.610;10.236;2023-05-08T11:14:34;7.85;;;4.00;;
49071;SDS011;52656;52.610;10.236;2023-05-08T11:17:05;5.38;;;3.72;;
49071;SDS011;52656;52.610;10.236;2023-05-08T11:19:31;11.00;;;4.35;;
49071;SDS011;52656;52.610;10.236;2023-05-08T11:22:18;7.13;;;4.43;;
49071;SDS011;52656;52.610;10.236;2023-05-08T11:40:49;4.57;;;3.30;;
49071;SDS011;52656;52.610;10.236;2023-05-08T11:45:53;5.75;;;3.70;;
49071;SDS011;52656;52.610;10.236;2023-05-08T11:48:28;4.47;;;3.53;;
49071;SDS011;52656;52.610;10.236;2023-05-08T11:50:54;5.68;;;3.67;;
49071;SDS011;52656;52.610;10.236;2023-05-08T11:53:19;5.40;;;3.92;;
49071;SDS011;52656;52.610;10.236;2023-05-08T11:55:48;4.78;;;2.97;;
49071;SDS011;52656;52.610;10.236;2023-05-08T11:58:14;5.95;;;4.25;;
49071;SDS011;52656;52.610;10.236;2023-05-08T12:00:43;5.07;;;3.92;;
49071;SDS011;52656;52.610;10.236;2023-05-08T12:03:10;7.00;;;4.00;;
49071;SDS011;52656;52.610;10.236;2023-05-08T12:05:37;6.15;;;4.18;;
49071;SDS011;52656;52.610;10.236;2023-05-08T12:08:04;4.55;;;3.35;;
49071;SDS011;52656;52.610;10.236;2023-05-08T12:10:30;4.75;;;3.55;;
49071;SDS011;52656;52.610;10.236;2023-05-08T12:12:55;6.18;;;4.88;;
49071;SDS011;52656;52.610;10.236;2023-05-08T12:15:21;7.10;;;4.82;;
49071;SDS011;52656;52.610;10.236;2023-05-08T12:17:46;5.25;;;4.05;;
49071;SDS011;52656;52.610;10.236;2023-05-08T12:22:38;6.97;;;2.72;;
49071;SDS011;52656;52.610;10.236;2023-05-08T12:25:15;5.00;;;2.83;;
49071;SDS011;52656;52.610;10.236;2023-05-08T12:27:41;4.40;;;2.50;;
49071;SDS011;52656;52.610;10.236;2023-05-08T12:30:07;5.80;;;2.60;;
49071;SDS011;52656;52.610;10.236;2023-05-08T12:32:37;5.28;;;2.80;;
49071;SDS011;52656;52.610;10.236;2023-05-08T12:35:05;4.85;;;3.40;;
49071;SDS011;52656;52.610;10.236;2023-05-08T12:37:32;5.07;;;2.72;;
49071;SDS011;52656;52.610;10.236;2023-05-08T12:39:57;3.17;;;2.33;;
49071;SDS011;52656;52.610;10.236;2023-05-08T12:42:39;13.63;;;5.68;;
49071;SDS011;52656;52.610;10.236;2023-05-08T12:45:15;4.13;;;2.67;;
49071;SDS011;52656;52.610;10.236;2023-05-08T12:47:45;3.93;;;2.63;;
49071;SDS011;52656;52.610;10.236;2023-05-08T12:50:14;3.70;;;2.70;;
49071;SDS011;52656;52.610;10.236;2023-05-08T12:52:40;4.00;;;2.63;;
49071;SDS011;52656;52.610;10.236;2023-05-08T12:55:18;5.28;;;2.60;;
49071;SDS011;52656;52.610;10.236;2023-05-08T12:58:09;4.32;;;3.15;;
49071;SDS011;52656;52.610;10.236;2023-05-08T13:00:39;4.05;;;2.80;;
49071;SDS011;52656;52.610;10.236;2023-05-08T13:03:07;4.40;;;3.20;;
49071;SDS011;52656;52.610;10.236;2023-05-08T13:05:39;4.03;;;3.10;;
49071;SDS011;52656;52.610;10.236;2023-05-08T13:08:06;4.57;;;2.80;;
49071;SDS011;52656;52.610;10.236;2023-05-08T13:10:52;4.18;;;2.97;;
49071;SDS011;52656;52.610;10.236;2023-05-08T13:13:20;4.10;;;3.08;;
49071;SDS011;52656;52.610;10.236;2023-05-08T13:15:47;4.72;;;3.30;;
49071;SDS011;52656;52.610;10.236;2023-05-08T13:18:13;6.93;;;3.00;;
49071;SDS011;52656;52.610;10.236;2023-05-08T13:20:40;4.72;;;3.03;;
49071;SDS011;52656;52.610;10.236;2023-05-08T13:23:05;5.30;;;2.78;;
49071;SDS011;52656;52.610;10.236;2023-05-08T13:25:32;4.32;;;2.92;;
49071;SDS011;52656;52.610;10.236;2023-05-08T13:27:59;5.30;;;3.00;;
49071;SDS011;52656;52.610;10.236;2023-05-08T13:30:24;2.95;;;2.25;;
49071;SDS011;52656;52.610;10.236;2023-05-08T13:32:50;3.83;;;2.78;;
49071;SDS011;52656;52.610;10.236;2023-05-08T13:35:16;4.03;;;2.55;;
49071;SDS011;52656;52.610;10.236;2023-05-08T13:37:42;6.25;;;3.05;;
49071;SDS011;52656;52.610;10.236;2023-05-08T13:40:08;3.83;;;2.63;;
49071;SDS011;52656;52.610;10.236;2023-05-08T13:42:34;4.22;;;3.05;;
49071;SDS011;52656;52.610;10.236;2023-05-08T13:45:00;3.45;;;2.42;;
49071;SDS011;52656;52.610;10.236;2023-05-08T13:47:25;6.25;;;2.78;;
49071;SDS011;52656;52.610;10.236;2023-05-08T13:49:51;4.70;;;3.05;;
49071;SDS011;52656;52.610;10.236;2023-05-08T13:52:16;3.53;;;2.63;;
49071;SDS011;52656;52.610;10.236;2023-05-08T13:54:42;4.53;;;1.90;;
49071;SDS011;52656;52.610;10.236;2023-05-08T13:57:07;4.53;;;2.80;;
49071;SDS011;52656;52.610;10.236;2023-05-08T13:59:33;3.40;;;2.53;;
49071;SDS011;52656;52.610;10.236;2023-05-08T14:01:58;3.40;;;2.35;;
49071;SDS011;52656;52.610;10.236;2023-05-08T14:04:24;3.63;;;2.75;;
49071;SDS011;52656;52.610;10.236;2023-05-08T14:06:49;3.88;;;3.08;;
49071;SDS011;52656;52.610;10.236;2023-05-08T14:09:15;4.10;;;3.08;;
49071;SDS011;52656;52.610;10.236;2023-05-08T14:11:40;3.28;;;2.47;;
49071;SDS011;52656;52.610;10.236;2023-05-08T14:14:05;7.72;;;2.75;;
49071;SDS011;52656;52.610;10.236;2023-05-08T14:16:31;3.80;;;2.65;;
49071;SDS011;52656;52.610;10.236;2023-05-08T14:18:57;3.92;;;2.50;;
49071;SDS011;52656;52.610;10.236;2023-05-08T14:21:22;4.80;;;2.83;;
49071;SDS011;52656;52.610;10.236;2023-05-08T14:23:47;4.05;;;2.90;;
49071;SDS011;52656;52.610;10.236;2023-05-08T14:26:13;3.88;;;2.83;;
49071;SDS011;52656;52.610;10.236;2023-05-08T14:28:38;11.75;;;3.00;;
49071;SDS011;52656;52.610;10.236;2023-05-08T14:31:03;7.10;;;2.92;;
49071;SDS011;52656;52.610;10.236;2023-05-08T14:33:29;4.32;;;2.55;;
49071;SDS011;52656;52.610;10.236;2023-05-08T14:35:54;3.60;;;2.70;;
49071;SDS011;52656;52.610;10.236;2023-05-08T14:38:19;5.15;;;2.50;;
49071;SDS011;52656;52.610;10.236;2023-05-08T14:40:48;5.03;;;2.75;;
49071;SDS011;52656;52.610;10.236;2023-05-08T14:43:13;4.10;;;2.78;;
49071;SDS011;52656;52.610;10.236;2023-05-08T14:45:39;5.18;;;2.95;;
49071;SDS011;52656;52.610;10.236;2023-05-08T14:48:04;3.45;;;2.30;;
49071;SDS011;52656;52.610;10.236;2023-05-08T14:50:30;4.78;;;2.63;;
49071;SDS011;52656;52.610;10.236;2023-05-08T14:52:55;4.35;;;2.63;;
49071;SDS011;52656;52.610;10.236;2023-05-08T14:55:20;10.27;;;2.95;;
49071;SDS011;52656;52.610;10.236;2023-05-08T14:57:46;5.20;;;2.90;;
49071;SDS011;52656;52.610;10.236;2023-05-08T15:00:12;3.60;;;2.60;;
49071;SDS011;52656;52.610;10.236;2023-05-08T15:02:38;4.55;;;2.40;;
49071;SDS011;52656;52.610;10.236;2023-05-08T15:05:04;3.60;;;2.38;;
49071;SDS011;52656;52.610;10.236;2023-05-08T15:07:30;7.55;;;2.13;;
49071;SDS011;52656;52.610;10.236;2023-05-08T15:09:55;3.33;;;2.20;;
49071;SDS011;52656;52.610;10.236;2023-05-08T15:12:20;3.95;;;2.47;;
49071;SDS011;52656;52.610;10.236;2023-05-08T15:14:46;3.88;;;2.33;;
49071;SDS011;52656;52.610;10.236;2023-05-08T15:17:11;3.58;;;2.25;;
49071;SDS011;52656;52.610;10.236;2023-05-08T15:19:36;3.30;;;2.40;;
49071;SDS011;52656;52.610;10.236;2023-05-08T15:22:02;4.07;;;2.35;;
49071;SDS011;52656;52.610;10.236;2023-05-08T15:24:27;3.13;;;2.00;;
49071;SDS011;52656;52.610;10.236;2023-05-08T15:26:53;3.38;;;2.22;;
49071;SDS011;52656;52.610;10.236;2023-05-08T15:29:18;5.60;;;2.40;;
49071;SDS011;52656;52.610;10.236;2023-05-08T15:31:43;2.65;;;2.00;;
49071;SDS011;52656;52.610;10.236;2023-05-08T15:34:08;3.17;;;2.08;;
49071;SDS011;52656;52.610;10.236;2023-05-08T15:36:34;3.38;;;2.28;;
49071;SDS011;52656;52.610;10.236;2023-05-08T15:38:59;3.60;;;2.40;;
49071;SDS011;52656;52.610;10.236;2023-05-08T15:41:24;6.32;;;2.70;;
49071;SDS011;52656;52.610;10.236;2023-05-08T15:43:50;10.77;;;2.53;;
49071;SDS011;52656;52.610;10.236;2023-05-08T15:46:15;2.85;;;2.05;;
49071;SDS011;52656;52.610;10.236;2023-05-08T15:48:40;4.45;;;2.25;;
49071;SDS011;52656;52.610;10.236;2023-05-08T15:51:06;4.20;;;2.50;;
49071;SDS011;52656;52.610;10.236;2023-05-08T15:53:31;4.78;;;2.13;;
49071;SDS011;52656;52.610;10.236;2023-05-08T15:55:58;3.17;;;2.10;;
49071;SDS011;52656;52.610;10.236;2023-05-08T15:58:23;3.63;;;2.22;;
49071;SDS011;52656;52.610;10.236;2023-05-08T16:00:48;3.13;;;1.90;;
49071;SDS011;52656;52.610;10.236;2023-05-08T16:03:14;3.47;;;1.90;;
49071;SDS011;52656;52.610;10.236;2023-05-08T16:05:39;4.60;;;2.13;;
49071;SDS011;52656;52.610;10.236;2023-05-08T16:08:04;3.25;;;2.05;;
49071;SDS011;52656;52.610;10.236;2023-05-08T16:10:31;2.70;;;1.80;;
49071;SDS011;52656;52.610;10.236;2023-05-08T16:12:56;3.63;;;2.17;;
49071;SDS011;52656;52.610;10.236;2023-05-08T16:15:22;4.93;;;2.20;;
49071;SDS011;52656;52.610;10.236;2023-05-08T16:17:47;4.20;;;2.25;;
49071;SDS011;52656;52.610;10.236;2023-05-08T16:20:12;3.60;;;2.10;;
49071;SDS011;52656;52.610;10.236;2023-05-08T16:22:37;3.25;;;1.77;;